createdAt,value
2019-01-25T00:03:51.549Z,97669.10
2019-01-25T00:06:44.880Z,97820.95
2019-01-25T00:09:34.296Z,97817.77
2019-01-25T00:12:24.226Z,97823.80
2019-01-25T00:18:22.288Z,97820.09
2019-01-25T00:21:11.579Z,97817.11
2019-01-25T00:24:01.433Z,97822.23
2019-01-25T00:26:50.824Z,97820.10
2019-01-25T00:29:40.509Z,97819.34
2019-01-25T00:32:11.236Z,97823.52
2019-01-25T00:35:00.980Z,97830.34
2019-01-25T00:37:42.801Z,97824.75
2019-01-25T00:40:25.010Z,97829.11
2019-01-25T00:42:55.710Z,97826.59
2019-01-25T00:45:25.958Z,97829.20
2019-01-25T00:48:15.609Z,97832.95
2019-01-25T00:51:05.048Z,97830.30
2019-01-25T00:53:54.885Z,97832.44
2019-01-25T00:56:44.323Z,97830.81
2019-01-25T00:59:35.417Z,97830.05
2019-01-25T01:02:06.414Z,97832.61
2019-01-25T01:16:28.072Z,97832.61
2019-01-25T01:22:15.543Z,97842.42
2019-01-25T01:25:05.352Z,97842.86
2019-01-25T01:30:53.141Z,97846.70
2019-01-25T01:33:42.448Z,97841.66
2019-01-25T01:39:27.087Z,97848.49
2019-01-25T01:44:52.021Z,97851.47
2019-01-25T01:47:34.002Z,97854.97
2019-01-25T01:50:15.850Z,97854.08
2019-01-25T01:55:42.963Z,97858.30
2019-01-25T01:58:24.363Z,97859.72
2019-01-25T02:03:49.711Z,97859.16
2019-01-25T02:09:16.572Z,97851.60
2019-01-25T02:11:58.682Z,97851.99
2019-01-25T02:17:23.170Z,97851.91
2019-01-25T02:23:17.842Z,97862.70
2019-01-25T02:26:09.037Z,97859.72
2019-01-25T02:31:37.667Z,97857.27
2019-01-25T02:34:27.094Z,97857.27
2019-01-25T02:37:16.579Z,97859.41
2019-01-25T02:40:06.543Z,97762.97
2019-01-25T02:42:55.952Z,97853.78
2019-01-25T02:45:45.566Z,97854.71
2019-01-25T02:48:34.925Z,97847.42
2019-01-25T02:51:24.635Z,97849.25
2019-01-25T02:54:14.020Z,97847.59
2019-01-25T02:57:22.769Z,97848.47
2019-01-25T03:00:13.996Z,97849.33
2019-01-25T03:03:04.936Z,97855.30
2019-01-25T03:05:35.615Z,97854.99
2019-01-25T03:08:06.203Z,97857.59
2019-01-25T03:10:36.622Z,97861.78
2019-01-25T03:13:26.116Z,97863.80
2019-01-25T03:16:15.445Z,97863.30
2019-01-25T03:19:05.474Z,97860.81
2019-01-25T03:21:55.136Z,97866.78
2019-01-25T03:24:44.760Z,97871.01
2019-01-25T03:30:46.042Z,97865.73
2019-01-25T03:33:35.317Z,97867.09
2019-01-25T03:36:58.004Z,97869.34
2019-01-25T03:39:27.585Z,97875.97
2019-01-25T03:44:52.313Z,97870.56
2019-01-25T03:47:35.327Z,97873.55
2019-01-25T03:50:16.813Z,97867.30
2019-01-25T03:52:58.399Z,97874.16
2019-01-25T03:55:40.128Z,97875.92
2019-01-25T03:58:20.148Z,97870.35
2019-01-25T04:01:25.365Z,97877.30
2019-01-25T04:06:50.879Z,97881.02
2019-01-25T04:09:40.628Z,97883.20
2019-01-25T04:12:11.229Z,97886.16
2019-01-25T04:15:00.602Z,97886.27
2019-01-25T04:17:50.459Z,97886.80
2019-01-25T04:20:39.764Z,97892.73
2019-01-25T04:23:29.438Z,97901.82
2019-01-25T04:26:18.883Z,97898.88
2019-01-25T04:29:08.911Z,97907.42
2019-01-25T04:31:59.652Z,97904.44
2019-01-25T04:34:31.621Z,97907.44
2019-01-25T04:37:20.997Z,97901.45
2019-01-25T04:39:51.312Z,97906.09
2019-01-25T04:42:33.021Z,97902.77
2019-01-25T04:47:57.672Z,97910.05
2019-01-25T04:53:23.856Z,97910.50
2019-01-25T04:56:05.151Z,97900.16
2019-01-25T04:58:38.044Z,97906.19
2019-01-25T05:01:27.776Z,97907.59
2019-01-25T05:04:17.505Z,97902.50
2019-01-25T05:06:48.122Z,97906.74
2019-01-25T05:09:18.553Z,97904.60
2019-01-25T05:12:08.733Z,97912.67
2019-01-25T05:14:41.359Z,97910.13
2019-01-25T05:17:31.131Z,97914.39
2019-01-25T05:20:01.526Z,97918.68
2019-01-25T05:22:54.776Z,97917.42
2019-01-25T05:25:26.055Z,97917.84
2019-01-25T05:27:56.708Z,97916.99
2019-01-25T05:30:27.310Z,97924.66
2019-01-25T05:32:58.996Z,97930.13
2019-01-25T05:35:48.515Z,97927.56
2019-01-25T05:38:44.041Z,97928.39
2019-01-25T05:41:28.673Z,97928.35
2019-01-25T05:44:16.350Z,97939.03
2019-01-25T05:46:58.174Z,97937.78
2019-01-25T05:49:39.712Z,97937.33
2019-01-25T05:54:53.216Z,97939.02
2019-01-25T05:57:23.949Z,97936.02
2019-01-25T05:59:54.410Z,97940.69
2019-01-25T06:06:15.025Z,97933.36
2019-01-25T06:08:45.702Z,97929.44
2019-01-25T06:11:38.012Z,97928.16
2019-01-25T06:14:10.481Z,97935.03
2019-01-25T06:16:45.004Z,97934.20
2019-01-25T06:19:17.634Z,97935.86
2019-01-25T06:21:48.053Z,97939.70
2019-01-25T06:24:38.041Z,97937.13
2019-01-25T06:30:02.068Z,97946.41
2019-01-25T06:32:32.743Z,97948.05
2019-01-25T06:38:13.617Z,97945.46
2019-01-25T06:41:03.171Z,97951.45
2019-01-25T06:43:58.294Z,97950.92
2019-01-25T06:46:48.330Z,97957.38
2019-01-25T06:49:19.042Z,97963.70
2019-01-25T06:52:29.508Z,97967.89
2019-01-25T06:54:59.879Z,97971.34
2019-01-25T07:01:11.627Z,97975.98
2019-01-25T07:04:01.355Z,97972.58
2019-01-25T07:06:33.482Z,97979.75
2019-01-25T07:14:47.388Z,98007.92
2019-01-25T07:17:37.005Z,98007.02
2019-01-25T07:20:17.628Z,98007.38
2019-01-25T07:23:10.284Z,98010.38
2019-01-25T07:25:41.822Z,98012.52
2019-01-25T07:28:31.179Z,98011.11
2019-01-25T07:31:13.982Z,98016.99
2019-01-25T07:33:56.366Z,98019.53
2019-01-25T07:36:26.821Z,98022.52
2019-01-25T07:39:00.175Z,98017.00
2019-01-25T07:41:30.774Z,98022.80
2019-01-25T07:44:01.398Z,98027.13
2019-01-25T07:46:31.882Z,98024.56
2019-01-25T07:49:02.172Z,98023.65
2019-01-25T07:51:32.698Z,98022.34
2019-01-25T07:54:40.912Z,98022.74
2019-01-25T07:57:30.565Z,98023.11
2019-01-25T08:00:20.647Z,98021.31
2019-01-25T08:08:45.133Z,98028.70
2019-01-25T08:11:36.747Z,98034.58
2019-01-25T08:14:26.230Z,98031.95
2019-01-25T08:16:56.657Z,98036.11
2019-01-25T08:19:46.236Z,98033.36
2019-01-25T08:22:36.052Z,98031.58
2019-01-25T08:25:10.351Z,98038.34
2019-01-25T08:27:59.731Z,98029.76
2019-01-25T08:30:49.066Z,98036.85
2019-01-25T08:33:39.854Z,98039.03
2019-01-25T08:36:39.757Z,98039.68
2019-01-25T08:39:11.257Z,98029.98
2019-01-25T08:41:52.575Z,98039.77
2019-01-25T08:44:30.358Z,98044.46
2019-01-25T08:47:19.793Z,98040.45
2019-01-25T08:50:11.487Z,98045.41
2019-01-25T08:52:42.174Z,98043.14
2019-01-25T08:55:16.973Z,98048.91
2019-01-25T08:58:06.616Z,98051.94
2019-01-25T09:00:52.157Z,98050.05
2019-01-25T09:03:30.946Z,98054.80
2019-01-25T09:06:01.356Z,98050.95
2019-01-25T09:08:33.757Z,98054.28
2019-01-25T09:11:04.369Z,98045.77
2019-01-25T09:14:17.038Z,98040.63
2019-01-25T09:16:47.393Z,98048.56
2019-01-25T09:19:21.779Z,98030.23
2019-01-25T09:21:54.154Z,98052.56
2019-01-25T09:24:45.269Z,98057.74
2019-01-25T09:27:36.737Z,98044.80
2019-01-25T09:30:11.289Z,98057.25
2019-01-25T09:32:41.624Z,98056.34
2019-01-25T09:35:30.994Z,98051.49
2019-01-25T09:38:01.319Z,97993.06
2019-01-25T09:40:31.954Z,98045.25
2019-01-25T09:43:02.257Z,98051.13
2019-01-25T09:45:32.651Z,98044.81
2019-01-25T09:50:54.160Z,98065.03
2019-01-25T09:53:24.469Z,98059.80
2019-01-25T09:56:02.861Z,98066.04
2019-01-25T09:58:53.319Z,98072.47
2019-01-25T10:04:19.031Z,98073.31
2019-01-25T10:06:51.757Z,98078.70
2019-01-25T10:09:23.169Z,98084.02
2019-01-25T10:11:53.487Z,98084.75
2019-01-25T10:14:42.905Z,98079.59
2019-01-25T10:17:32.234Z,98081.84
2019-01-25T10:20:23.040Z,98079.20
2019-01-25T10:22:55.231Z,98082.31
2019-01-25T10:25:44.557Z,98085.09
2019-01-25T10:28:38.367Z,98089.50
2019-01-25T10:31:10.200Z,98088.19
2019-01-25T10:33:40.733Z,98088.14
2019-01-25T10:36:11.411Z,98087.01
2019-01-25T10:39:00.973Z,98086.34
2019-01-25T10:41:35.750Z,98081.07
2019-01-25T10:44:34.750Z,98073.36
2019-01-25T10:47:16.522Z,98077.84
2019-01-25T10:53:29.015Z,98082.77
2019-01-25T10:56:18.633Z,98086.09
2019-01-25T10:59:27.048Z,98083.91
2019-01-25T11:01:57.522Z,98086.78
2019-01-25T11:05:01.345Z,98073.00
2019-01-25T11:07:21.103Z,98070.91
2019-01-25T11:10:11.741Z,98067.29
2019-01-25T11:12:43.191Z,98057.48
2019-01-25T11:15:39.171Z,98045.16
2019-01-25T11:18:29.474Z,98046.36
2019-01-25T11:21:28.286Z,98045.20
2019-01-25T11:24:15.560Z,98040.09
2019-01-25T11:26:48.118Z,98036.44
2019-01-25T11:29:21.676Z,98040.30
2019-01-25T11:31:55.176Z,98041.78
2019-01-25T11:34:27.516Z,98042.27
2019-01-25T11:37:13.362Z,98035.82
2019-01-25T11:40:13.525Z,98035.99
2019-01-25T11:43:08.476Z,98034.07
2019-01-25T11:49:04.910Z,98035.06
2019-01-25T11:51:56.107Z,98032.94
2019-01-25T11:54:28.129Z,98040.98
2019-01-25T11:57:00.774Z,98033.09
2019-01-25T11:59:53.999Z,98031.76
2019-01-25T12:03:02.254Z,98040.44
2019-01-25T12:05:38.316Z,98049.73
2019-01-25T12:08:11.888Z,98051.70
2019-01-25T12:11:01.202Z,98049.98
2019-01-25T12:13:53.083Z,98060.40
2019-01-25T12:16:42.725Z,98054.02
2019-01-25T12:19:32.165Z,98018.41
2019-01-25T12:22:02.799Z,98055.34
2019-01-25T12:24:59.734Z,98056.86
2019-01-25T12:27:30.095Z,98050.47
2019-01-25T12:30:21.315Z,98052.05
2019-01-25T12:33:13.861Z,98047.44
2019-01-25T12:36:03.300Z,98045.35
2019-01-25T12:38:55.052Z,98046.41
2019-01-25T12:41:46.191Z,98047.39
2019-01-25T12:44:19.698Z,98051.02
2019-01-25T12:47:09.522Z,98047.76
2019-01-25T12:49:40.169Z,98046.00
2019-01-25T12:52:32.752Z,98050.14
2019-01-25T12:55:25.460Z,98051.55
2019-01-25T12:58:04.376Z,98053.55
2019-01-25T13:00:34.891Z,98053.68
2019-01-25T13:03:25.591Z,98059.45
2019-01-25T13:06:15.014Z,98058.02
2019-01-25T13:09:07.114Z,98060.66
2019-01-25T13:12:05.083Z,98059.81
2019-01-25T13:14:54.413Z,98064.09
2019-01-25T13:17:43.973Z,98061.16
2019-01-25T13:20:26.112Z,98062.12
2019-01-25T13:22:56.662Z,98059.38
2019-01-25T13:26:10.866Z,98055.25
2019-01-25T13:28:41.860Z,98058.00
2019-01-25T13:31:12.886Z,98055.09
2019-01-25T13:37:45.576Z,98047.85
2019-01-25T13:40:17.598Z,98040.78
2019-01-25T13:42:48.531Z,98044.99
2019-01-25T13:45:19.876Z,98038.20
2019-01-25T13:47:50.341Z,98038.38
2019-01-25T13:50:41.985Z,98043.56
2019-01-25T13:56:56.022Z,98047.23
2019-01-25T13:59:32.962Z,97967.48
2019-01-25T14:02:03.469Z,98049.84
2019-01-25T14:04:35.081Z,98053.77
2019-01-25T14:07:05.785Z,98056.97
2019-01-25T14:09:36.510Z,98054.12
2019-01-25T14:12:08.645Z,98053.80
2019-01-25T14:14:39.268Z,98060.95
2019-01-25T14:17:30.085Z,98064.47
2019-01-25T14:20:00.379Z,98071.75
2019-01-25T14:22:34.058Z,98075.97
2019-01-25T14:25:06.654Z,98071.89
2019-01-25T14:27:58.708Z,98068.73
2019-01-25T14:30:53.771Z,98065.22
2019-01-25T14:33:48.579Z,98067.61
2019-01-25T14:36:39.272Z,98071.85
2019-01-25T14:42:45.012Z,97937.28
2019-01-25T14:48:24.732Z,98078.95
2019-01-25T14:51:16.711Z,98081.19
2019-01-25T14:54:09.294Z,98078.04
2019-01-25T15:00:03.211Z,98078.28
2019-01-25T15:02:18.887Z,98085.58
2019-01-25T15:05:07.413Z,98087.16
2019-01-25T15:10:36.136Z,98094.19
2019-01-25T15:13:08.689Z,98094.05
2019-01-25T15:18:55.546Z,98093.48
2019-01-25T15:24:17.259Z,98091.70
2019-01-25T15:26:50.367Z,98092.12
2019-01-25T15:29:20.730Z,98090.83
2019-01-25T15:31:51.064Z,98100.01
2019-01-25T15:34:24.480Z,98089.13
2019-01-25T15:36:56.773Z,98090.53
2019-01-25T15:39:30.410Z,98088.98
2019-01-25T15:42:06.801Z,98089.06
2019-01-25T15:47:20.249Z,98093.41
2019-01-25T15:49:56.503Z,98093.93
2019-01-25T15:52:26.807Z,98094.70
2019-01-25T15:55:01.417Z,98094.09
2019-01-25T15:57:39.976Z,98103.80
2019-01-25T16:00:32.351Z,98093.30
2019-01-25T16:03:22.056Z,98102.02
2019-01-25T16:09:27.400Z,98101.18
2019-01-25T16:12:19.298Z,98094.30
2019-01-25T16:15:14.197Z,98100.66
2019-01-25T16:18:03.779Z,98104.80
2019-01-25T16:23:32.368Z,98116.70
2019-01-25T16:26:21.731Z,98119.63
2019-01-25T16:29:32.863Z,98117.84
2019-01-25T16:35:53.792Z,98125.94
2019-01-25T16:39:04.325Z,98129.66
2019-01-25T16:41:42.015Z,98128.86
2019-01-25T16:44:12.620Z,98121.84
2019-01-25T16:47:21.982Z,98124.05
2019-01-25T16:50:11.796Z,98125.33
2019-01-25T16:53:02.484Z,98134.48
2019-01-25T16:55:52.117Z,98125.42
2019-01-25T17:01:37.161Z,98116.55
2019-01-25T17:04:10.732Z,98121.19
2019-01-25T17:07:02.765Z,98123.89
2019-01-25T17:09:52.802Z,98121.91
2019-01-25T17:12:42.660Z,98128.67
2019-01-25T17:15:32.043Z,97974.95
2019-01-25T17:18:24.178Z,98122.73
2019-01-25T17:21:26.611Z,98126.37
2019-01-25T17:23:47.675Z,98130.17
2019-01-25T17:26:19.181Z,98141.44
2019-01-25T17:29:09.291Z,98145.69
2019-01-25T17:31:55.312Z,98045.81
2019-01-25T17:34:17.852Z,98142.24
2019-01-25T17:37:07.255Z,98138.89
2019-01-25T17:40:05.758Z,98148.33
2019-01-25T17:42:55.925Z,98135.94
2019-01-25T17:45:32.738Z,98142.13
2019-01-25T17:48:27.235Z,98141.77
2019-01-25T17:50:57.566Z,98130.41
2019-01-25T17:53:33.830Z,98133.55
2019-01-25T17:59:36.041Z,98025.30
2019-01-25T18:02:09.101Z,98119.03
2019-01-25T18:04:46.307Z,98135.31
2019-01-25T18:07:18.207Z,98140.52
2019-01-25T18:10:08.851Z,98127.95
2019-01-25T18:12:58.279Z,98133.25
2019-01-25T18:15:51.433Z,98084.45
2019-01-25T18:18:43.762Z,98139.98
2019-01-25T18:21:16.887Z,98130.75
2019-01-25T18:23:47.210Z,98125.71
2019-01-25T18:26:39.929Z,98134.23
2019-01-25T18:29:14.006Z,98124.84
2019-01-25T18:31:44.273Z,98137.58
2019-01-25T18:34:36.552Z,98135.89
2019-01-25T18:37:25.813Z,98145.30
2019-01-25T18:43:42.883Z,98077.03
2019-01-25T18:46:13.721Z,98137.34
2019-01-25T18:49:03.030Z,98138.27
2019-01-25T18:52:15.740Z,98129.62
2019-01-25T18:54:56.954Z,98119.46
2019-01-25T18:57:46.663Z,98122.75
2019-01-25T19:01:09.277Z,98117.24
2019-01-25T19:03:31.343Z,98117.66
2019-01-25T19:06:20.721Z,98119.08
2019-01-25T19:09:11.794Z,98122.88
2019-01-25T19:11:51.705Z,98125.39
2019-01-25T19:14:27.981Z,98116.89
2019-01-25T19:17:07.592Z,98106.78
2019-01-25T19:19:58.817Z,98105.70
2019-01-25T19:22:31.729Z,97993.09
2019-01-25T19:25:28.517Z,98091.08
2019-01-25T19:28:01.753Z,98088.13
2019-01-25T19:30:36.388Z,98080.40
2019-01-25T19:33:26.902Z,98072.83
2019-01-25T19:35:59.075Z,98073.39
2019-01-25T19:38:40.456Z,98075.13
2019-01-25T19:47:09.417Z,98070.40
2019-01-25T19:49:52.803Z,98063.41
2019-01-25T19:52:52.338Z,98074.14
2019-01-25T19:55:32.324Z,98083.69
2019-01-25T20:01:29.711Z,98086.58
2019-01-25T20:04:08.950Z,98084.99
2019-01-25T20:15:52.739Z,97947.72
2019-01-25T20:21:27.230Z,98098.14
2019-01-25T20:30:19.761Z,98106.18
2019-01-25T20:33:14.015Z,98109.24
2019-01-25T20:39:12.903Z,98095.64
2019-01-25T20:42:02.622Z,98088.30
2019-01-25T20:44:48.977Z,98094.42
2019-01-25T20:47:24.436Z,98035.38
2019-01-25T20:53:48.241Z,98092.54
2019-01-25T21:02:34.580Z,98077.06
2019-01-25T21:05:32.680Z,98080.05
2019-01-25T21:08:16.410Z,98073.97
2019-01-25T21:13:40.439Z,98061.12
2019-01-25T21:16:51.186Z,98061.20
2019-01-25T21:19:45.663Z,98060.76
2019-01-25T21:22:39.286Z,98058.23
2019-01-25T21:25:51.327Z,98045.36
2019-01-25T21:37:10.142Z,98023.02
2019-01-25T21:45:44.832Z,98024.55
2019-01-25T21:48:48.835Z,98024.12
2019-01-25T21:51:31.271Z,98015.06
2019-01-25T21:58:05.461Z,98015.53
2019-01-25T22:00:52.187Z,98014.27
2019-01-25T22:06:50.976Z,98016.82
2019-01-25T22:09:40.348Z,98012.03
2019-01-25T22:12:30.285Z,98017.92
2019-01-25T22:18:13.741Z,97999.66
2019-01-25T22:21:06.282Z,97991.50
2019-01-25T22:23:58.572Z,97990.66
2019-01-25T22:30:19.616Z,97986.35
2019-01-25T22:36:58.903Z,97983.09
2019-01-25T22:39:49.938Z,97978.44
2019-01-25T22:42:39.558Z,97850.59
2019-01-25T22:45:22.058Z,97975.28
2019-01-25T22:50:46.273Z,97962.32
2019-01-25T22:53:35.857Z,97964.80
2019-01-25T22:56:47.462Z,97967.80
2019-01-25T22:59:56.966Z,97964.30
2019-01-25T23:12:30.223Z,97956.23
2019-01-25T23:15:00.494Z,97951.09
2019-01-25T23:17:50.595Z,97941.26
2019-01-25T23:20:40.857Z,97942.84
2019-01-25T23:23:32.660Z,97943.34
2019-01-25T23:26:06.015Z,97941.34
2019-01-25T23:28:36.266Z,97939.72
2019-01-25T23:31:47.589Z,97932.92
2019-01-25T23:34:36.966Z,97928.20
2019-01-25T23:37:45.414Z,97918.52
2019-01-25T23:40:53.657Z,97907.86
2019-01-25T23:44:03.164Z,97901.53
2019-01-25T23:46:44.893Z,97900.21
2019-01-25T23:52:09.201Z,97900.13
2019-01-25T23:54:39.476Z,97899.69
2019-01-25T23:57:10.194Z,97893.98
2019-01-25T23:59:41.514Z,97903.36
